Weather observations for the past three days for
Vernon, Wilbarger County Airport
Metric (Imperial)
Date Time (cdt) Wind (kph) Vis. (km) Weather Sky Cond. Temperature (ºC) Relative Humidity Wind Chill (°C) Heat Index (°C) Pressure Precipitation (cm)
Air Dwpt 6 hour altimeter (cm) sea level (mb) 1 hr 3 hr 6 hr
Max. Min.
07 16:35 S 7 16.09 Fair CLR 25.9 3.5 24% 26 76.12 0.0
07 16:15 Calm 16.09 Fair CLR 25.3 3.4 24% 25 76.15 0.0
07 15:55 Calm 16.09 Fair CLR 24.7 3.4 25% 25 76.17 0.0
07 15:35 NE 7 16.09 Fair CLR 24.9 3.2 24% 25 76.2 0.0
07 15:15 SW 6 16.09 Fair CLR 24.3 4.3 27% 25 76.23 0.0
07 14:55 Calm 16.09 Fair CLR 23.6 4.4 29% 76.25 0.0
07 14:35 SW 9 16.09 Fair CLR 23.4 4.7 30% 76.28 0.0
07 14:15 W 6 16.09 Fair CLR 22.7 4.7 31% 76.33 0.0
07 13:55 Calm 16.09 Fair CLR 22.2 5 33% 76.35 0.0
07 13:35 Calm 16.09 Fair CLR 21.7 4.9 34% 76.38 0.0
07 13:15 Calm 16.09 Fair CLR 21.3 4.8 34% 76.4 0.0
07 12:55 Calm 16.09 Fair CLR 20.7 4.7 20.7 7.1 35% 76.45 0.0
07 12:35 W 11 16.09 Fair CLR 20 4.9 37% 76.48 0.0
07 12:15 SW 9 16.09 Fair CLR 20 4.8 37% 76.5 0.0
07 11:55 Calm 16.09 Fair CLR 19 4.9 40% 76.53 0.0
07 11:35 SW 6 16.09 Fair CLR 18.3 5 42% 76.53 0.0
07 11:15 SW 9 16.09 Fair CLR 18.4 4.9 41% 76.56 0.0
07 10:55 W 6 16.09 Fair CLR 17.6 5 44% 76.56 0.0
07 10:35 Calm 16.09 Fair CLR 17 4.9 45% 76.58 0.0
07 10:15 Calm 16.09 Fair CLR 16.1 4.8 47% 76.61 0.0
07 09:55 N 6 16.09 Fair CLR 15.6 4.6 48% 76.61 0.0
07 09:35 NE 7 16.09 Fair CLR 15.2 4.5 49% 76.63 0.0
07 09:15 NE 7 16.09 Fair CLR 14.7 4.3 50% 76.63 0.0
07 08:55 N 11 16.09 Fair CLR 14.1 4.1 51% 76.63 0.0
07 08:35 N 13 16.09 Fair CLR 13.6 4 53% 76.63 0.0
07 08:15 N 6 16.09 Fair CLR 12.2 3.8 57% 76.63 0.0
07 07:55 Calm 16.09 Fair CLR 10.7 3.9 63% 76.63 0.0
07 07:35 Calm 16.09 Fair CLR 8.6 3.6 71% 76.63 0.0
07 07:15 Calm 16.09 Fair CLR 7.1 2.9 75% 76.61 0.0
07 06:55 Calm 16.09 Fair CLR 7 2.9 12 6.8 75% 76.61 0.0
07 06:35 NW 6 16.09 Fair CLR 7.8 2.8 71% 76.58 0.0
07 06:15 NW 6 16.09 Fair CLR 7 2.9 75% 76.58 0.0
07 05:55 W 7 16.09 Fair CLR 7.2 3 75% 6 76.56 0.0
07 05:35 NW 6 16.09 Fair CLR 8.4 3.1 70% 76.53 0.0
07 05:15 NW 7 16.09 Fair CLR 8.5 3.2 70% 8 76.56 0.0
07 04:55 NW 7 16.09 Fair CLR 8.4 3.3 71% 8 76.56 0.0
07 04:35 NW 9 16.09 Fair CLR 8.4 3.3 71% 7 76.56 0.0
07 04:15 NW 6 16.09 Fair CLR 9.2 3.6 68% 76.56 0.0
07 03:55 N 6 16.09 Fair CLR 10.5 3.9 64% 76.53 0.0
07 03:35 Calm 16.09 Fair CLR 10.2 4 66% 76.53 0.0
07 03:15 N 6 16.09 Fair CLR 10.2 4.2 67% 76.53 0.0
07 02:55 N 7 16.09 Fair CLR 10.3 4.4 67% 76.5 0.0
07 02:35 N 9 16.09 Fair CLR 10.7 4.6 66% 76.5 0.0
07 02:15 N 11 16.09 Fair CLR 10.5 4.9 69% 76.5 0.0
07 01:55 N 7 16.09 Fair CLR 11.2 5.1 66% 76.53 0.0
07 01:35 NE 7 16.09 Fair CLR 11.3 5.3 67% 76.5 0.0
07 01:15 NE 6 16.09 Fair CLR 11.7 5.5 66% 76.5 0.0
07 00:55 N 9 16.09 Fair CLR 12 5.8 21.5 11.7 66% 76.5 0.0
07 00:35 NE 9 16.09 Fair CLR 11.9 5.7 66% 76.48 0.0
07 00:15 N 7 16.09 Fair CLR 11.9 5.5 65% 76.48 0.0
06 23:55 NE 9 16.09 Fair CLR 12.2 5.7 65% 76.48 0.0
06 23:35 NE 7 16.09 Fair CLR 13.1 5.7 61% 76.45 0.0
06 23:15 NE 6 16.09 Fair CLR 13.9 5.9 59% 76.43 0.0
06 22:55 E 7 16.09 Fair CLR 14.7 5.8 55% 76.4 0.0
06 22:35 E 13 16.09 Fair CLR 15.4 6 54% 76.35 0.0
06 22:15 E 17 16.09 Fair CLR 16 5.8 51% 76.33 0.0
06 21:55 E 15 16.09 Fair CLR 16.1 5.9 51% 76.3 0.0
06 21:35 E 13 16.09 Fair CLR 16.5 5.8 49% 76.28 0.0
06 21:15 E 15 16.09 Fair CLR 17.2 5.7 47% 76.28 0.0
06 20:55 E 15 16.09 Fair CLR 17.7 5.6 45% 76.25 0.0
06 20:35 E 13 16.09 Fair CLR 18.5 5.6 43% 76.2 0.0
06 20:15 E 19 16.09 Fair CLR 19.5 5.5 40% 76.2 0.0
06 19:55 E 19 16.09 Fair CLR 20.2 5.4 38% 76.17 0.0
06 19:35 NE 20 16.09 Fair CLR 20.7 4.7 35% 76.15 0.0
06 19:15 NE 20 G 28 16.09 Fair CLR 21.1 4.8 35% 76.15 0.0
06 18:55 NE 15 G 28 16.09 Fair CLR 21.5 5 22.1 17.3 34% 76.15 0.0
06 18:35 NE 19 G 31 16.09 Fair CLR 21.7 5.1 34% 76.15 0.0
06 18:15 NE 13 G 26 16.09 Fair CLR 21.7 5.2 34% 76.15 0.0
06 17:55 NE 17 G 30 16.09 Fair CLR 21.7 5.3 34% 76.12 0.0
06 17:35 NE 11 16.09 Fair CLR 21.8 5.4 34% 76.12 0.0
06 17:15 NE 19 G 26 16.09 Fair CLR 22 5.4 34% 76.1 0.0
06 16:55 NE 15 16.09 Fair CLR 21.6 5.5 35% 76.12 0.0
06 16:35 NE 15 G 26 16.09 Fair CLR 22 5.6 35% 76.12 0.0
06 16:15 N 20 G 30 16.09 Partly Cloudy SCT055 22 5.6 35% 76.12 0.0
06 15:55 N 15 16.09 Fair CLR 21.4 5.5 36% 76.15 0.0
06 15:35 NE 9 16.09 Fair CLR 21.1 5.6 37% 76.17 0.0
06 15:15 NE 13 16.09 Fair CLR 20.6 5.7 38% 76.2 0.0
06 14:55 NE 13 G 26 16.09 Fair CLR 20.4 5.8 39% 76.2 0.0
06 14:35 NE 17 G 31 16.09 Fair CLR 20 5.6 39% 76.2 0.0
06 14:15 NE 9 16.09 Fair CLR 19 5.6 42% 76.2 0.0
06 13:55 NE 15 G 30 16.09 Fair CLR 19.2 5.9 42% 76.25 0.0
06 13:35 NE 17 G 30 16.09 Fair CLR 18 5.9 45% 76.25 0.0
06 13:15 NE 17 G 28 16.09 Fair CLR 17.5 5.5 45% 76.25 0.0
06 12:55 E 19 G 33 16.09 Fair CLR 17.3 5.6 17.3 11.3 46% 76.25 0.0
06 12:35 E 20 G 30 16.09 Partly Cloudy SCT034 16.7 5.4 47% 76.3 0.0
06 12:15 E 17 G 33 16.09 Partly Cloudy SCT032 16.3 5.6 49% 76.3 0.0
06 11:55 E 20 G 33 16.09 Partly Cloudy SCT032 15.5 5.4 51% 76.3 0.0
06 11:35 E 22 G 31 16.09 Partly Cloudy SCT032 15.4 5.6 52% 76.33 0.0
06 11:15 NE 17 16.09 Partly Cloudy SCT032 14.7 5.2 53% 76.33 0.0
06 10:55 E 15 16.09 Mostly Cloudy BKN032 14.3 5 54% 76.35 0.0
06 10:35 E 20 16.09 Partly Cloudy SCT032 14.2 4.8 53% 76.35 0.0
06 10:15 E 19 G 30 16.09 Fair CLR 13.6 4.8 56% 76.35 0.0
06 09:55 E 22 G 30 16.09 Fair CLR 13.2 5 58% 76.3 0.0
06 09:35 NE 20 G 28 16.09 Fair CLR 13 5.1 59% 76.28 0.0
06 09:15 NE 20 16.09 Fair CLR 12.6 5 60% 76.28 0.0
06 08:55 NE 20 16.09 Fair CLR 12.5 5 61% 76.28 0.0
06 08:35 NE 19 16.09 Fair CLR 12 4.7 61% 76.25 0.0
06 08:15 NE 19 16.09 Fair CLR 11.6 4.4 62% 76.23 0.0
06 07:55 NE 17 16.09 Fair CLR 11.4 4.1 61% 76.2 0.0
06 07:35 NE 17 G 28 16.09 Partly Cloudy SCT030 11.3 3.5 59% 76.17 0.0
06 07:15 NE 19 16.09 Overcast OVC030 11.5 3.1 57% 76.17 0.0
06 06:55 NE 19 G 28 16.09 Overcast OVC030 11.5 3 11.7 11 56% 76.17 0.0
06 06:35 NE 15 G 28 16.09 Overcast OVC028 11.5 3.1 57% 76.15 0.0
06 06:15 NE 17 16.09 Overcast OVC028 11.5 3.5 58% 76.12 0.0
06 05:55 NE 17 16.09 Overcast OVC028 11.3 3.3 58% 76.12 0.0
06 05:35 NE 17 16.09 Overcast OVC028 11.3 4.3 62% 76.12 0.0
06 05:15 NE 19 G 28 16.09 Overcast OVC024 11.2 4.4 63% 76.12 0.0
06 04:55 NE 15 G 26 16.09 Overcast OVC022 11.1 5.5 69% 76.12 0.0
06 04:35 NE 13 16.09 Overcast OVC020 11.1 6.1 72% 76.1 0.0
06 04:15 NE 17 16.09 Overcast OVC020 11.1 6.1 72% 76.07 0.0
06 03:55 NE 15 16.09 Overcast OVC018 11.1 6.5 74% 76.07 0.0
06 03:35 N 19 G 30 16.09 Overcast OVC018 11.2 6.6 74% 76.05 0.0
06 03:15 NE 13 16.09 Overcast OVC016 11.2 7.5 78% 76.07 0.0
06 02:55 NE 15 16.09 Overcast OVC018 11.4 7.1 75% 76.02 0.0
06 02:35 NE 13 16.09 Overcast OVC018 11.5 7 74% 75.97 0.0
06 02:15 NE 11 16.09 Overcast OVC018 11.5 6.9 74% 76.02 0.0
06 01:55 NE 11 16.09 Overcast OVC018 11.5 6.8 73% 76 0.0
06 01:35 NE 17 16.09 Overcast OVC018 11.6 6.9 73% 75.97 0.0
06 01:15 NE 15 G 26 16.09 Overcast OVC018 11.6 7 74% 75.95 0.0
06 00:55 NE 17 16.09 Overcast OVC020 11.6 6.7 15.3 11.6 72% 75.97 0.0
06 00:35 NE 20 G 30 16.09 Overcast OVC020 11.7 6.7 72% 75.95 0.0
06 00:15 NE 17 16.09 Overcast OVC020 11.9 7 72% 75.97 0.0
05 23:55 NE 15 G 26 16.09 Overcast OVC020 12 7 72% 76 0.0
05 23:35 NE 19 16.09 Overcast OVC020 12.1 7 71% 75.97 0.0
05 23:15 NE 13 16.09 Overcast OVC022 12.1 7.1 72% 75.97 0.0
05 22:55 NE 15 16.09 Mostly Cloudy BKN022 12 6.8 71% 75.92 0.0
05 22:35 NE 17 16.09 Partly Cloudy SCT024 12.3 7 70% 75.9 0.0
05 22:15 NE 13 16.09 Fair CLR 12.5 6.6 68% 75.87 0.0
05 21:55 NE 19 16.09 Fair CLR 12.8 6.7 67% 75.87 0.0
05 21:35 NE 20 16.09 Fair CLR 13.1 6.7 65% 75.84 0.0
05 21:15 NE 19 G 26 16.09 Fair CLR 13.3 6.8 65% 75.84 0.0
05 20:55 NE 20 G 30 16.09 Fair CLR 13.7 7 64% 75.79 0.0
05 20:35 NE 13 G 28 16.09 Fair CLR 14.2 7.2 63% 75.79 0.0
05 20:15 NE 17 16.09 Fair CLR 14.4 7.4 63% 75.74 0.0
05 19:55 NE 19 16.09 Partly Cloudy SCT028 14.6 7.5 63% 75.74 0.0
05 19:35 NE 24 16.09 Partly Cloudy SCT028 14.9 7.6 62% 75.69 0.0
05 19:15 N 26 G 35 16.09 Overcast OVC028 15.2 7.7 61% 75.69 0.0
05 18:55 NE 24 G 35 16.09 Mostly Cloudy BKN028 15.3 7.8 21.8 15.3 61% 75.69 0.0
05 18:35 N 24 G 37 16.09 Fair CLR 15.7 8 60% 75.69 0.0
05 18:15 N 19 G 37 16.09 Fair CLR 16.1 8 59% 75.67 0.0
05 17:55 NE 24 G 35 16.09 Fair CLR 16.5 8.1 58% 75.72 0.0
05 17:35 N 26 G 37 16.09 Fair CLR 16.9 8.4 58% 75.72 0.0
05 17:15 N 28 G 39 16.09 Fair CLR 17.6 8.7 56% 75.69 0.0
05 16:55 N 20 16.09 Fair CLR 18.5 9.1 55% 75.69 0.0
05 16:35 N 22 G 33 16.09 Fair CLR 19.1 9.2 53% 75.72 0.0
05 16:15 N 24 16.09 Fair CLR 20 9.1 50% 75.69 0.0
05 15:55 N 20 G 33 16.09 Fair CLR 20.4 9 48% 75.67 0.0
05 15:35 N 20 16.09 Fair CLR 21.1 8.9 46% 75.64 0.0
05 15:15 N 20 G 31 16.09 Fair CLR 21.5 8.4 43% 75.67 0.0
05 14:55 N 17 G 30 16.09 Partly Cloudy SCT034 21 8.7 45% 75.67 0.0
05 14:35 N 24 G 37 16.09 Partly Cloudy SCT034 20.7 8.5 46% 75.64 0.0
05 14:15 N 26 G 39 16.09 Fair CLR 20.9 8.6 45% 75.64 0.0
05 13:55 N 28 G 43 16.09 Fair CLR 21.5 8.7 44% 75.62 0.0
05 13:35 N 30 G 39 16.09 Fair CLR 20.7 8.9 47% 75.62 0.0
05 13:15 N 24 G 35 16.09 Fair CLR 21.6 9.4 46% 75.67 0.0
05 12:55 N 22 G 31 16.09 Fair CLR 21.1 9.7 25.3 20.6 48% 75.64 0.0
05 12:35 N 26 G 41 16.09 Fair CLR 21.2 9.6 48% 75.62 0.0
05 12:15 N 24 G 37 16.09 Fair CLR 21.7 10.1 48% 75.62 0.0
05 11:55 N 30 G 39 16.09 Fair CLR 21.3 10.6 51% 75.57 0.0
05 11:35 N 31 G 39 16.09 Fair CLR 20.9 11.1 54% 75.51 0.0
05 11:15 N 30 G 39 16.09 Fair CLR 21.5 12 55% 75.49 0.0
05 10:55 N 30 G 41 16.09 Fair CLR 22.2 12.7 55% 75.44 0.0
05 10:35 N 30 G 43 16.09 Fair CLR 22.8 13.3 55% 75.41 0.0
05 10:15 N 31 G 39 16.09 Fair CLR 23.1 14.2 57% 75.36 0.0
05 09:55 N 24 G 35 16.09 Fair CLR 23 12.7 52% 75.39 0.0
05 09:35 NW 30 16.09 Fair CLR 23.4 7.2 35% 75.36 0.0
05 09:15 NW 26 16.09 Fair CLR 25 1.8 22% 25 75.29 0.0
05 08:55 NW 20 16.09 Fair CLR 24.7 2.9 24% 25 75.26 0.0
05 08:35 W 20 16.09 Fair CLR 24.5 7.1 33% 25 75.23 0.0
05 08:15 W 13 16.09 Fair CLR 22.3 12.4 54% 75.18 0.0
05 07:55 SW 15 16.09 Fair CLR 21.5 13.2 59% 75.16 0.0
05 07:35 SW 11 16.09 Fair CLR 20.8 13.2 62% 75.13 0.0
05 07:15 SW 11 16.09 Fair CLR 20.9 13.1 61% 75.11 0.0
05 06:55 SW 13 16.09 Fair CLR 21 13.1 25.2 20.2 61% 75.11 0.0
05 06:35 SW 15 16.09 Fair CLR 20.5 13.1 63% 75.08 0.0
05 06:15 SW 13 16.09 Fair CLR 20.3 13.1 63% 75.08 0.0
05 05:55 SW 15 16.09 Fair CLR 21.6 13.2 59% 75.06 0.0
05 05:35 SW 17 16.09 Fair CLR 22.3 13.3 57% 75.03 0.0
05 05:15 SW 19 16.09 Fair CLR 23 13.2 54% 75.03 0.0
05 04:55 SW 17 16.09 Fair CLR 23.2 13.1 53% 75.03 0.0
05 04:35 SW 19 16.09 Fair CLR 22.7 13.2 55% 75.03 0.0
05 04:15 SW 15 16.09 Fair CLR 21.8 13.3 59% 75.03 0.0
05 03:55 S 13 16.09 Fair CLR 22.2 13.3 57% 75.06 0.0
05 03:35 SW 11 16.09 Fair CLR 23.3 13 52% 75.06 0.0
05 03:15 SW 17 16.09 Fair CLR 23.2 13 53% 75.06 0.0
05 02:55 S 17 16.09 Fair CLR 23.2 13.1 53% 75.06 0.0
05 02:35 S 19 16.09 Fair CLR 23.8 13.3 52% 75.08 0.0
05 02:15 S 20 16.09 Fair CLR 24.5 13.5 50% 26 75.11 0.0
05 01:55 S 22 G 28 16.09 Fair CLR 24.4 14 52% 26 75.11 0.0
05 01:35 S 19 16.09 Fair CLR 24.3 14.5 54% 26 75.13 0.0
05 01:15 S 19 16.09 Fair CLR 24.6 15.2 56% 26 75.13 0.0
05 00:55 S 20 G 28 16.09 Fair CLR 25.2 15.6 32.8 25.2 55% 26 75.13 0.0
05 00:35 S 19 16.09 Fair CLR 25.5 15.5 54% 26 75.13 0.0
05 00:15 S 19 16.09 Fair CLR 26 15.5 52% 27 75.16 0.0
04 23:55 S 19 16.09 Fair CLR 26 15.6 53% 27 75.16 0.0
04 23:35 S 20 G 28 16.09 Fair CLR 26.1 16 54% 27 75.16 0.0
04 23:15 S 24 G 31 16.09 Fair CLR 26.5 16.1 53% 27 75.16 0.0
04 22:55 S 20 16.09 Fair CLR 26.6 16.1 53% 27 75.18 0.0
04 22:35 S 26 G 31 16.09 Fair CLR 27 16 51% 27 75.16 0.0
04 22:15 S 24 16.09 Fair CLR 27.3 16 50% 28 75.16 0.0
04 21:55 S 28 G 37 16.09 Fair CLR 27.5 15.8 49% 28 75.16 0.0
04 21:35 S 28 16.09 Fair CLR 28 15.5 47% 28 75.16 0.0
04 21:15 S 28 G 41 16.09 Fair CLR 28.5 15 44% 28 75.13 0.0
04 20:55 S 24 G 41 16.09 Fair CLR 29.1 14 40% 29 75.13 0.0
04 20:35 S 31 G 41 16.09 Fair CLR 29.8 13.4 37% 29 75.11 0.0
04 20:15 S 31 G 39 16.09 Fair CLR 30.5 12.7 34% 30 75.08 0.0
04 19:55 S 31 G 41 16.09 Fair CLR 31.2 12.4 32% 30 75.11 0.0
04 19:35 S 30 G 39 16.09 Fair CLR 31.9 9.8 25% 30 75.11 0.0
04 19:15 S 22 16.09 Fair CLR 32.6 9.2 24% 31 75.11 0.0
04 18:55 S 33 16.09 Fair and Breezy CLR 32.9 9.1 35.6 31.1 23% 31 75.11 0.0
04 18:35 S 30 G 46 16.09 Partly Cloudy SCT120 33.1 9.3 23% 31 75.13 0.0
04 18:15 SW 31 G 46 16.09 Mostly Cloudy SCT070 SCT080 BKN120 33.4 9.5 23% 32 75.16 0.0
04 17:55 SW 33 G 39 16.09 Mostly Cloudy and Breezy SCT060 SCT070 BKN120 33.3 9.7 23% 32 75.16 0.0
04 17:35 SW 31 G 37 16.09 Fair CLR 33.7 7.9 20% 32 75.13 0.0
04 17:15 SW 31 G 46 16.09 Fair CLR 34.8 7.9 19% 33 75.13 0.0
04 16:55 SW 31 G 43 16.09 Fair CLR 35.1 8.5 19% 33 75.16 0.0
Date Time (cdt) Wind (kph) Vis. (km) Weather Sky Cond. Air Dwpt Max. Min. Relative Humidity Wind Chill (°C) Heat Index (°C) altimeter (cm) sea level (mb) 1 hr 3 hr 6 hr
6 hour
Temperature (ºC) Pressure Precipitation (cm)